Time;durP1;ratioP1;P1;durP2;ratioP2;P2;SDS_P1;SDS_P2;PMS_P1;PMS_P2;Temp;Humidity;BMP_temperature;BMP_pressure;BME280_temperature;BME280_humidity;BME280_pressure;Samples;Min_cycle;Max_cycle;Signal;HPM_P1;HPM_P2
2021/03/13 00:00:52;;;;;;;1.23;0.57;;;6.90;99.90;;;;;;8366503;28;20398;-62
2021/03/13 00:04:52;;;;;;;2.75;0.60;;;6.80;99.90;;;;;;8355583;28;20032;-62
2021/03/13 00:08:53;;;;;;;1.80;0.50;;;6.80;99.90;;;;;;8386582;28;20056;-62
2021/03/13 00:12:54;;;;;;;2.33;1.00;;;6.80;99.90;;;;;;8337319;28;20026;-62
2021/03/13 00:16:54;;;;;;;1.45;0.65;;;6.70;99.90;;;;;;8322471;28;20025;-62
2021/03/13 00:20:55;;;;;;;2.75;1.23;;;6.70;99.90;;;;;;8322451;28;20063;-62
2021/03/13 00:24:55;;;;;;;2.42;0.90;;;6.70;99.90;;;;;;8332009;28;20032;-62
2021/03/13 00:28:56;;;;;;;2.55;0.57;;;6.60;99.90;;;;;;8374654;28;20025;-62
2021/03/13 00:32:59;;;;;;;3.58;0.95;;;6.70;99.90;;;;;;8381086;28;20111;-62
2021/03/13 00:37:00;;;;;;;2.20;0.90;;;6.70;99.90;;;;;;8357366;28;20029;-62
2021/03/13 00:41:00;;;;;;;1.80;0.80;;;6.60;99.90;;;;;;8361974;28;20777;-62
2021/03/13 00:45:03;;;;;;;1.75;0.40;;;6.70;99.90;;;;;;8372968;28;20035;-61
2021/03/13 00:49:04;;;;;;;3.90;1.05;;;6.80;99.90;;;;;;8349657;23;20029;-71
2021/03/13 00:53:06;;;;;;;0.77;0.43;;;6.80;99.90;;;;;;8333279;28;20559;-71
2021/03/13 00:57:06;;;;;;;3.90;0.70;;;6.80;99.90;;;;;;8337929;28;20512;-71
2021/03/13 01:01:07;;;;;;;3.25;0.80;;;6.80;99.90;;;;;;8332009;28;20036;-71
2021/03/13 01:05:09;;;;;;;4.00;1.08;;;6.80;99.90;;;;;;8331956;28;20030;-71
2021/03/13 01:09:09;;;;;;;2.20;0.80;;;6.70;99.90;;;;;;8335461;28;20637;-71
2021/03/13 01:13:10;;;;;;;1.63;0.73;;;6.70;99.90;;;;;;8362381;28;20029;-71
2021/03/13 01:17:10;;;;;;;5.28;1.00;;;6.50;99.90;;;;;;8312150;28;20025;-71
2021/03/13 01:21:11;;;;;;;1.63;0.68;;;6.50;99.90;;;;;;8298974;28;20092;-71
2021/03/13 01:25:13;;;;;;;1.33;0.68;;;6.50;99.90;;;;;;8311182;28;20102;-70
2021/03/13 01:29:13;;;;;;;2.58;0.40;;;6.50;99.90;;;;;;8364370;28;20032;-70
2021/03/13 01:33:14;;;;;;;1.65;0.55;;;6.40;99.90;;;;;;8363980;28;20501;-71
2021/03/13 01:37:17;;;;;;;0.98;0.32;;;6.40;99.90;;;;;;8363990;28;20622;-71
2021/03/13 01:41:18;;;;;;;2.90;0.90;;;6.40;99.90;;;;;;8363997;28;20425;-71
2021/03/13 01:45:22;;;;;;;3.85;0.82;;;6.30;99.90;;;;;;8363584;28;20114;-71
2021/03/13 01:49:28;;;;;;;3.22;0.80;;;6.20;99.90;;;;;;8308877;28;20026;-71
2021/03/13 01:53:29;;;;;;;3.47;0.50;;;6.20;99.90;;;;;;8297973;28;20026;-71
2021/03/13 01:57:31;;;;;;;8.20;0.88;;;6.20;99.90;;;;;;8348021;28;20108;-71
2021/03/13 02:01:31;;;;;;;1.70;0.70;;;6.10;99.90;;;;;;8363617;28;20487;-71
2021/03/13 02:05:37;;;;;;;1.40;0.35;;;6.10;99.90;;;;;;8361909;28;20021;-71
2021/03/13 02:09:53;;;;;;;2.92;1.00;;;6.10;99.90;;;;;;8363066;28;20029;-71
2021/03/13 02:14:28;;;;;;;1.45;0.73;;;6.00;99.90;;;;;;8362829;28;20029;-71
2021/03/13 02:18:37;;;;;;;1.50;0.80;;;5.90;99.90;;;;;;8357472;28;20028;-71
2021/03/13 02:22:40;;;;;;;1.70;0.82;;;5.80;99.90;;;;;;8296901;28;20113;-71
2021/03/13 02:27:21;;;;;;;1.90;0.60;;;5.80;99.90;;;;;;8318960;28;20172;-71
2021/03/13 02:31:25;;;;;;;4.67;1.03;;;5.70;99.90;;;;;;8306951;28;20036;-71
2021/03/13 02:35:34;;;;;;;3.25;0.80;;;5.60;99.90;;;;;;8328670;28;20026;-71
2021/03/13 02:39:36;;;;;;;2.92;0.60;;;5.50;99.90;;;;;;8351137;28;20032;-71
2021/03/13 02:43:41;;;;;;;3.45;1.00;;;5.50;99.90;;;;;;8361666;28;20037;-71
2021/03/13 02:47:44;;;;;;;2.25;0.70;;;5.50;99.90;;;;;;8362310;28;20099;-70
2021/03/13 02:51:46;;;;;;;2.15;0.90;;;5.50;99.90;;;;;;8336466;28;20037;-71
2021/03/13 02:55:50;;;;;;;1.45;0.60;;;5.50;99.90;;;;;;8317805;28;20056;-71
2021/03/13 02:59:52;;;;;;;0.85;0.60;;;5.50;99.90;;;;;;8360417;28;20033;-71
2021/03/13 03:03:54;;;;;;;6.53;1.27;;;5.40;99.90;;;;;;8361384;28;20372;-71
2021/03/13 03:07:56;;;;;;;1.02;0.80;;;5.40;99.90;;;;;;8361499;28;20017;-71
2021/03/13 03:11:57;;;;;;;1.98;0.90;;;5.40;99.90;;;;;;8359869;28;20112;-71
2021/03/13 03:16:04;;;;;;;3.25;1.02;;;5.30;99.90;;;;;;8361051;28;20064;-71
2021/03/13 03:20:09;;;;;;;1.05;0.52;;;5.40;99.90;;;;;;8360957;28;20390;-71
2021/03/13 03:24:10;;;;;;;1.25;0.60;;;5.40;99.90;;;;;;8330470;28;20034;-70
2021/03/13 03:28:14;;;;;;;2.45;0.57;;;5.40;99.90;;;;;;8356660;28;20102;-71
2021/03/13 03:32:15;;;;;;;1.17;0.80;;;5.40;99.90;;;;;;8360440;28;20024;-71
2021/03/13 03:36:17;;;;;;;3.38;0.93;;;5.50;99.90;;;;;;8347141;28;20033;-71
2021/03/13 03:40:19;;;;;;;1.23;0.70;;;5.50;99.90;;;;;;8330154;28;20495;-71
2021/03/13 03:44:24;;;;;;;2.65;0.82;;;5.60;99.90;;;;;;8327204;28;20147;-71
2021/03/13 03:48:25;;;;;;;0.57;0.45;;;5.60;99.90;;;;;;8327422;28;20021;-71
2021/03/13 03:52:28;;;;;;;9.07;1.05;;;5.60;99.90;;;;;;8326926;28;20037;-71
2021/03/13 03:56:29;;;;;;;0.77;0.52;;;5.70;99.90;;;;;;8310433;28;20022;-71
2021/03/13 04:00:29;;;;;;;1.20;0.65;;;5.70;99.90;;;;;;8294083;28;20034;-71
2021/03/13 04:04:30;;;;;;;1.45;0.93;;;5.70;99.90;;;;;;8294094;28;20113;-71
2021/03/13 04:08:32;;;;;;;1.52;0.75;;;5.70;99.90;;;;;;8294354;28;20101;-71
2021/03/13 04:12:35;;;;;;;1.75;0.80;;;5.70;99.90;;;;;;8293960;28;20026;-71
2021/03/13 04:16:36;;;;;;;2.03;0.75;;;5.70;99.90;;;;;;8325339;28;20505;-70
2021/03/13 04:20:38;;;;;;;2.83;0.65;;;5.70;99.90;;;;;;8338202;28;20033;-71
2021/03/13 04:24:40;;;;;;;1.63;0.57;;;5.70;99.90;;;;;;8329874;28;20033;-71
2021/03/13 04:28:41;;;;;;;2.05;0.50;;;5.70;99.90;;;;;;8311784;28;20022;-71
2021/03/13 04:32:46;;;;;;;2.35;0.57;;;5.70;99.90;;;;;;8293681;28;20033;-71
2021/03/13 04:36:48;;;;;;;1.25;0.68;;;5.70;99.90;;;;;;8322180;28;20017;-71
2021/03/13 04:40:51;;;;;;;1.23;0.60;;;5.70;99.90;;;;;;8326403;28;20487;-71
2021/03/13 04:44:52;;;;;;;1.67;0.60;;;5.80;99.90;;;;;;8326123;28;20036;-71
2021/03/13 04:48:53;;;;;;;2.55;1.25;;;5.70;99.90;;;;;;8326204;28;20032;-71
2021/03/13 04:52:54;;;;;;;1.10;0.50;;;5.80;99.90;;;;;;8326141;28;20037;-71
2021/03/13 04:56:55;;;;;;;2.67;0.70;;;5.80;99.90;;;;;;8326256;28;20104;-71
2021/03/13 05:00:56;;;;;;;0.93;0.43;;;5.70;99.90;;;;;;8307234;28;20084;-71
2021/03/13 05:04:56;;;;;;;2.58;0.98;;;5.80;99.90;;;;;;8293235;28;20022;-71
2021/03/13 05:08:57;;;;;;;0.80;0.32;;;5.90;99.90;;;;;;8293312;28;20033;-70
2021/03/13 05:12:57;;;;;;;2.08;0.80;;;5.90;99.90;;;;;;8294136;28;20022;-70
2021/03/13 05:16:58;;;;;;;0.73;0.40;;;6.00;99.90;;;;;;8299157;28;20025;-71
2021/03/13 05:20:58;;;;;;;2.65;1.02;;;5.90;99.90;;;;;;8298901;28;20028;-71
2021/03/13 05:24:59;;;;;;;1.63;0.68;;;5.90;99.90;;;;;;8307593;28;20739;-70
2021/03/13 05:29:00;;;;;;;0.60;0.30;;;5.90;99.90;;;;;;8364707;28;20104;-71
2021/03/13 05:33:00;;;;;;;1.40;0.40;;;5.90;99.90;;;;;;8326901;28;20388;-71
2021/03/13 05:37:01;;;;;;;1.25;0.47;;;6.00;99.90;;;;;;8327562;28;20438;-71
2021/03/13 05:41:02;;;;;;;2.17;0.70;;;6.00;99.90;;;;;;8340089;28;20407;-70
2021/03/13 05:45:04;;;;;;;1.15;0.60;;;6.00;99.90;;;;;;8332501;28;20029;-70
2021/03/13 05:49:06;;;;;;;2.60;0.52;;;6.00;99.90;;;;;;8331726;28;20079;-71
2021/03/13 05:53:10;;;;;;;0.93;0.40;;;6.00;99.90;;;;;;8330707;28;20483;-71
2021/03/13 05:57:11;;;;;;;1.33;0.40;;;6.10;99.90;;;;;;8340457;28;20049;-71
2021/03/13 06:01:12;;;;;;;2.65;0.70;;;6.10;99.90;;;;;;8328743;28;20022;-70
2021/03/13 06:05:14;;;;;;;1.67;0.60;;;6.20;99.90;;;;;;8325436;28;20497;-71
2021/03/13 06:09:14;;;;;;;1.85;0.80;;;6.20;99.90;;;;;;8332461;28;20026;-71
2021/03/13 06:13:15;;;;;;;2.40;0.57;;;6.30;99.90;;;;;;8338308;28;20526;-71
2021/03/13 06:17:16;;;;;;;3.65;0.55;;;6.40;99.90;;;;;;8335716;28;20032;-71
2021/03/13 06:21:32;;;;;;;1.38;0.60;;;6.40;99.90;;;;;;8341531;28;20021;-70
2021/03/13 06:25:35;;;;;;;2.70;0.77;;;6.40;99.90;;;;;;8333140;28;20036;-70
2021/03/13 06:29:35;;;;;;;1.92;0.52;;;6.40;99.90;;;;;;8330469;28;20034;-70
2021/03/13 06:33:36;;;;;;;2.63;0.47;;;6.30;99.90;;;;;;8328220;28;20064;-71
2021/03/13 06:37:37;;;;;;;0.90;0.40;;;6.40;99.90;;;;;;8315504;28;20033;-71
2021/03/13 06:41:38;;;;;;;2.80;0.60;;;6.50;99.90;;;;;;8332678;28;20032;-71
2021/03/13 06:46:12;;;;;;;5.22;0.70;;;6.60;99.90;;;;;;8328281;28;20037;-70
2021/03/13 06:50:21;;;;;;;2.60;0.73;;;6.90;99.90;;;;;;8325070;28;20123;-71
2021/03/13 06:54:34;;;;;;;2.08;0.70;;;7.10;99.90;;;;;;8326888;28;20032;-71
2021/03/13 06:58:37;;;;;;;2.80;0.75;;;7.10;99.90;;;;;;8325260;28;20678;-71
2021/03/13 07:02:37;;;;;;;1.48;0.65;;;7.10;99.90;;;;;;8325708;28;20049;-70
2021/03/13 07:06:45;;;;;;;1.15;0.50;;;7.10;99.90;;;;;;8332022;22;20125;-63
2021/03/13 07:10:45;;;;;;;1.48;0.40;;;7.10;99.90;;;;;;8310091;28;20412;-63
2021/03/13 07:14:46;;;;;;;1.67;0.60;;;7.10;99.90;;;;;;8300053;28;20034;-62
2021/03/13 07:18:47;;;;;;;1.65;0.55;;;7.20;99.90;;;;;;8298947;28;20037;-63
2021/03/13 07:22:53;;;;;;;1.55;0.50;;;7.60;99.90;;;;;;8302052;28;20038;-62
2021/03/13 07:26:57;;;;;;;3.83;0.90;;;7.60;99.90;;;;;;8309049;28;20032;-63
2021/03/13 07:31:01;;;;;;;2.53;0.60;;;7.60;99.90;;;;;;8302250;28;20616;-63
2021/03/13 07:35:03;;;;;;;0.95;0.45;;;7.70;99.90;;;;;;8293738;28;20041;-63
2021/03/13 07:39:15;;;;;;;1.60;0.60;;;7.80;99.90;;;;;;8298628;28;20030;-63
2021/03/13 07:43:17;;;;;;;4.57;0.70;;;7.70;99.90;;;;;;8298836;28;20139;-63
2021/03/13 07:47:19;;;;;;;0.75;0.22;;;7.70;99.90;;;;;;8296562;28;20046;-63
2021/03/13 07:51:19;;;;;;;1.85;0.55;;;7.80;99.90;;;;;;8293042;28;20029;-63
2021/03/13 07:55:20;;;;;;;0.75;0.40;;;7.70;99.90;;;;;;8290947;28;20599;-62
2021/03/13 07:59:45;;;;;;;2.08;0.50;;;7.90;99.90;;;;;;8304705;28;20029;-63
2021/03/13 08:03:48;;;;;;;0.47;0.30;;;8.00;99.90;;;;;;8298052;28;20499;-62
2021/03/13 08:08:00;;;;;;;5.43;0.80;;;7.90;99.90;;;;;;8293074;28;20105;-62
2021/03/13 08:12:01;;;;;;;1.02;0.40;;;8.00;99.90;;;;;;8285368;28;20026;-62
2021/03/13 08:16:18;;;;;;;1.67;0.50;;;8.30;99.90;;;;;;8298313;28;20495;-62
2021/03/13 08:20:31;;;;;;;2.03;0.50;;;8.30;99.90;;;;;;8304478;28;20109;-61
2021/03/13 08:24:47;;;;;;;0.55;0.30;;;8.40;99.90;;;;;;8295102;28;20026;-62
2021/03/13 08:28:47;;;;;;;1.55;0.47;;;8.50;99.90;;;;;;8287521;28;20033;-61
2021/03/13 08:32:58;;;;;;;1.42;0.73;;;8.80;99.90;;;;;;8283422;28;20113;-62
2021/03/13 08:37:20;;;;;;;0.52;0.32;;;8.70;99.90;;;;;;8290221;28;20026;-62
2021/03/13 08:41:44;;;;;;;0.30;0.30;;;8.80;99.90;;;;;;8288469;28;20561;-62
2021/03/13 08:45:45;;;;;;;0.85;0.43;;;8.90;99.90;;;;;;8281691;28;20120;-62
2021/03/13 08:49:50;;;;;;;0.88;0.30;;;9.00;99.90;;;;;;8286780;28;20049;-62
2021/03/13 08:53:52;;;;;;;1.02;0.40;;;9.20;99.90;;;;;;8296931;28;20448;-62
2021/03/13 08:57:53;;;;;;;1.55;0.25;;;9.20;99.90;;;;;;8298457;28;20537;-62
2021/03/13 09:02:01;;;;;;;1.65;0.40;;;9.00;99.90;;;;;;8309613;28;20087;-62
2021/03/13 09:06:02;;;;;;;0.82;0.43;;;9.20;99.90;;;;;;8301478;28;20157;-63
2021/03/13 09:10:04;;;;;;;2.53;0.47;;;9.50;99.90;;;;;;8297068;28;20026;-62
2021/03/13 09:14:05;;;;;;;3.67;0.50;;;9.70;99.90;;;;;;8292937;28;20025;-62
2021/03/13 09:18:06;;;;;;;0.30;0.20;;;9.80;99.90;;;;;;8302620;28;20511;-62
2021/03/13 09:22:13;;;;;;;1.55;0.40;;;9.70;99.90;;;;;;8296170;28;20025;-62
2021/03/13 09:26:13;;;;;;;0.55;0.22;;;9.70;99.90;;;;;;8299823;28;20483;-63
2021/03/13 09:30:20;;;;;;;0.82;0.20;;;9.80;99.90;;;;;;8300901;28;20032;-62
2021/03/13 09:34:20;;;;;;;0.40;0.30;;;9.70;99.90;;;;;;8292624;28;20026;-64
2021/03/13 09:38:21;;;;;;;0.52;0.20;;;9.70;99.90;;;;;;8297395;28;20056;-63
2021/03/13 09:42:24;;;;;;;0.43;0.30;;;9.60;99.90;;;;;;8293601;28;20100;-63
2021/03/13 09:46:28;;;;;;;0.30;0.30;;;9.60;99.90;;;;;;8293411;28;20388;-63
2021/03/13 09:50:32;;;;;;;0.60;0.30;;;9.60;99.50;;;;;;8296934;28;20030;-62
2021/03/13 09:54:32;;;;;;;1.70;0.40;;;9.70;99.40;;;;;;8295904;28;20028;-62
2021/03/13 09:58:33;;;;;;;3.33;0.30;;;9.70;99.30;;;;;;8295322;28;20484;-63
2021/03/13 10:02:34;;;;;;;2.10;0.30;;;10.00;99.60;;;;;;8294532;28;20125;-62
2021/03/13 10:06:35;;;;;;;0.25;0.20;;;10.10;99.00;;;;;;8297334;28;20041;-62
2021/03/13 10:10:36;;;;;;;2.63;0.45;;;10.10;97.90;;;;;;8300026;28;20033;-62
2021/03/13 10:14:39;;;;;;;0.20;0.20;;;10.10;98.10;;;;;;8302898;28;20029;-62
2021/03/13 10:18:42;;;;;;;0.20;0.20;;;10.30;96.50;;;;;;8303474;28;20517;-63
2021/03/13 10:22:43;;;;;;;0.20;0.20;;;10.90;96.40;;;;;;8297114;28;20014;-62
2021/03/13 10:26:43;;;;;;;1.17;0.40;;;11.20;94.80;;;;;;8299833;28;20033;-62
2021/03/13 10:30:47;;;;;;;0.75;0.35;;;11.50;93.70;;;;;;8317753;28;20030;-63
2021/03/13 10:34:47;;;;;;;3.92;0.30;;;11.40;93.40;;;;;;8316293;28;20025;-62
2021/03/13 10:38:53;;;;;;;3.08;0.30;;;11.40;92.60;;;;;;8307684;28;20037;-62
2021/03/13 10:43:19;;;;;;;0.25;0.20;;;11.20;92.30;;;;;;8300664;28;20084;-62
2021/03/13 10:47:28;;;;;;;4.43;0.40;;;11.30;92.20;;;;;;8288173;28;20415;-62
2021/03/13 10:51:51;;;;;;;1.23;0.37;;;11.30;91.70;;;;;;8293556;28;20026;-63
2021/03/13 10:55:55;;;;;;;0.77;0.20;;;11.60;90.60;;;;;;8289294;28;20091;-63
2021/03/13 10:59:56;;;;;;;0.47;0.40;;;11.90;90.70;;;;;;8294023;28;20029;-62
2021/03/13 11:03:57;;;;;;;0.77;0.30;;;12.50;89.20;;;;;;8296072;28;20037;-61
2021/03/13 11:07:57;;;;;;;0.20;0.20;;;12.90;86.10;;;;;;8286800;28;20778;-62
2021/03/13 11:11:58;;;;;;;0.40;0.28;;;12.50;85.00;;;;;;8283094;28;20046;-61
2021/03/13 11:15:59;;;;;;;0.15;0.15;;;12.50;84.90;;;;;;8279424;28;20403;-62
2021/03/13 11:20:00;;;;;;;1.83;0.20;;;11.90;84.80;;;;;;8281193;28;20038;-61
2021/03/13 11:24:00;;;;;;;0.28;0.20;;;11.90;87.20;;;;;;8273834;28;20035;-61
2021/03/13 11:28:01;;;;;;;0.57;0.20;;;;;;;;;;8276646;28;20438;-62
2021/03/13 11:32:02;;;;;;;0.20;0.20;;;12.00;84.90;;;;;;8301183;28;20124;-61
2021/03/13 11:36:03;;;;;;;0.50;0.10;;;11.80;84.20;;;;;;8294541;28;20038;-62
2021/03/13 11:40:07;;;;;;;0.25;0.22;;;11.90;85.30;;;;;;8293865;28;20029;-62
2021/03/13 11:44:09;;;;;;;0.40;0.20;;;11.80;84.30;;;;;;8304386;28;20504;-61
2021/03/13 11:48:10;;;;;;;0.20;0.20;;;;;;;;;;8299073;28;20101;-62
2021/03/13 11:52:11;;;;;;;0.15;0.15;;;11.40;84.30;;;;;;8295338;28;20071;-61
2021/03/13 11:56:11;;;;;;;0.90;0.30;;;11.30;85.70;;;;;;8293223;28;20113;-61
2021/03/13 12:00:13;;;;;;;0.95;0.40;;;11.30;86.00;;;;;;8288592;28;20089;-61
2021/03/13 12:04:13;;;;;;;1.50;0.40;;;11.40;84.70;;;;;;8276529;28;20449;-62
2021/03/13 12:08:15;;;;;;;0.25;0.25;;;11.40;85.10;;;;;;8278973;28;20038;-62
2021/03/13 12:12:16;;;;;;;3.92;0.20;;;11.40;83.50;;;;;;8298999;28;20407;-62
2021/03/13 12:16:16;;;;;;;0.35;0.30;;;11.20;82.90;;;;;;8274844;28;20037;-62
2021/03/13 12:20:18;;;;;;;1.70;0.30;;;11.40;85.20;;;;;;8290864;28;21218;-62
2021/03/13 12:24:19;;;;;;;3.22;0.30;;;11.50;83.30;;;;;;8299119;28;20034;-62
2021/03/13 12:28:20;;;;;;;0.25;0.20;;;11.50;81.20;;;;;;8296229;28;20022;-61
2021/03/13 12:32:21;;;;;;;1.38;0.30;;;11.40;81.50;;;;;;8288299;28;20091;-63
2021/03/13 12:36:21;;;;;;;0.20;0.20;;;11.40;83.40;;;;;;8310613;28;20037;-61
2021/03/13 12:40:22;;;;;;;0.52;0.32;;;11.60;82.50;;;;;;8300312;28;20033;-62
2021/03/13 12:44:22;;;;;;;0.25;0.10;;;11.50;81.90;;;;;;8296155;28;20030;-62
2021/03/13 12:48:23;;;;;;;0.68;0.30;;;11.40;82.80;;;;;;8296571;28;20079;-62
2021/03/13 12:52:24;;;;;;;1.35;0.30;;;11.30;83.20;;;;;;8301111;28;20022;-62
2021/03/13 12:56:25;;;;;;;0.32;0.30;;;11.40;83.90;;;;;;8298173;28;20054;-62
2021/03/13 13:00:26;;;;;;;1.25;0.30;;;11.60;83.90;;;;;;8312180;28;20036;-62
2021/03/13 13:04:27;;;;;;;0.52;0.25;;;11.50;82.00;;;;;;8327767;22;20050;-69
2021/03/13 13:08:27;;;;;;;1.13;0.20;;;11.30;82.90;;;;;;8333514;28;20048;-70
2021/03/13 13:12:28;;;;;;;1.75;0.20;;;11.30;83.80;;;;;;8328075;28;20022;-70
2021/03/13 13:16:28;;;;;;;0.40;0.20;;;11.20;85.10;;;;;;8331120;28;20029;-70
2021/03/13 13:20:29;;;;;;;0.30;0.30;;;11.10;86.20;;;;;;8329062;28;20029;-70
2021/03/13 13:24:29;;;;;;;1.00;0.30;;;11.00;86.10;;;;;;8324007;28;20033;-70
2021/03/13 13:28:30;;;;;;;1.65;0.30;;;10.90;87.80;;;;;;8327522;28;20035;-70
2021/03/13 13:32:31;;;;;;;0.47;0.22;;;10.90;88.90;;;;;;8327596;28;20021;-70
2021/03/13 13:36:32;;;;;;;2.83;0.38;;;10.90;90.20;;;;;;8324933;28;20029;-70
2021/03/13 13:40:33;;;;;;;0.28;0.25;;;10.80;90.50;;;;;;8332739;28;20487;-70
2021/03/13 13:44:34;;;;;;;1.02;0.30;;;10.90;90.20;;;;;;8325749;28;20037;-70
2021/03/13 13:48:35;;;;;;;3.60;0.30;;;10.90;90.30;;;;;;8333108;28;20108;-69
2021/03/13 13:52:35;;;;;;;0.32;0.20;;;11.00;90.40;;;;;;8329779;28;20388;-69
2021/03/13 13:56:36;;;;;;;0.10;0.10;;;11.00;90.40;;;;;;8334572;28;20056;-69
2021/03/13 14:00:36;;;;;;;0.47;0.30;;;11.00;89.50;;;;;;8338439;28;20028;-69
2021/03/13 14:04:37;;;;;;;0.20;0.20;;;11.00;90.00;;;;;;8332151;28;20021;-69
2021/03/13 14:08:37;;;;;;;0.57;0.30;;;11.00;89.20;;;;;;8325578;28;20026;-69
2021/03/13 14:12:38;;;;;;;0.43;0.20;;;11.00;88.50;;;;;;8323385;28;20025;-69
2021/03/13 14:16:39;;;;;;;0.47;0.40;;;11.00;89.40;;;;;;8328772;28;20441;-69
2021/03/13 14:20:39;;;;;;;0.38;0.20;;;11.10;89.40;;;;;;8332253;28;20071;-69
2021/03/13 14:24:40;;;;;;;1.90;0.30;;;11.10;87.90;;;;;;8328241;28;20491;-70
2021/03/13 14:28:41;;;;;;;0.20;0.20;;;11.20;88.20;;;;;;8326886;28;20479;-69
2021/03/13 14:32:42;;;;;;;1.90;0.25;;;11.30;88.10;;;;;;8322950;28;20045;-69
2021/03/13 14:36:44;;;;;;;1.75;0.20;;;11.40;87.30;;;;;;8328874;28;20022;-69
2021/03/13 14:40:45;;;;;;;0.88;0.25;;;11.60;86.60;;;;;;8323301;28;20415;-69
2021/03/13 14:44:46;;;;;;;0.45;0.45;;;11.70;86.80;;;;;;8327891;28;20072;-69
2021/03/13 14:48:47;;;;;;;0.77;0.30;;;11.70;84.90;;;;;;8326876;28;20112;-69
2021/03/13 14:52:49;;;;;;;0.25;0.25;;;11.70;86.00;;;;;;8325700;28;20048;-69
2021/03/13 14:56:49;;;;;;;0.73;0.30;;;11.60;86.00;;;;;;8327310;28;20482;-69
2021/03/13 15:00:50;;;;;;;1.40;0.40;;;11.40;86.80;;;;;;8327848;28;20025;-67
2021/03/13 15:04:50;;;;;;;0.32;0.20;;;11.20;89.50;;;;;;8323835;28;20108;-69
2021/03/13 15:08:51;;;;;;;1.58;0.40;;;11.00;89.60;;;;;;8327405;28;20052;-69
2021/03/13 15:12:51;;;;;;;0.45;0.20;;;10.90;90.60;;;;;;8324322;28;20396;-69
2021/03/13 15:16:53;;;;;;;0.28;0.20;;;10.80;91.00;;;;;;8327502;28;20104;-69
2021/03/13 15:20:53;;;;;;;1.95;0.30;;;10.70;92.00;;;;;;8327051;28;20025;-69
2021/03/13 15:24:55;;;;;;;0.95;0.30;;;10.40;93.30;;;;;;8330754;28;20467;-69
2021/03/13 15:28:55;;;;;;;0.30;0.28;;;10.10;95.40;;;;;;8332179;28;20025;-69
2021/03/13 15:32:56;;;;;;;0.80;0.50;;;9.80;98.90;;;;;;8324840;28;20033;-69
2021/03/13 15:36:56;;;;;;;0.40;0.25;;;9.10;99.90;;;;;;8323674;28;20369;-69
2021/03/13 15:40:57;;;;;;;3.00;0.30;;;8.70;99.90;;;;;;8324384;28;20511;-69
2021/03/13 15:44:58;;;;;;;0.10;0.10;;;;;;;;;;8321904;28;20052;-69
2021/03/13 15:49:00;;;;;;;0.15;0.15;;;7.10;99.90;;;;;;8324247;28;20029;-69
2021/03/13 15:53:00;;;;;;;0.20;0.20;;;6.90;99.90;;;;;;8323037;28;20027;-69
2021/03/13 15:57:01;;;;;;;0.20;0.10;;;6.70;99.90;;;;;;8315512;28;20408;-69
2021/03/13 16:01:02;;;;;;;0.50;0.30;;;6.60;99.90;;;;;;8324853;28;20540;-68
2021/03/13 16:05:03;;;;;;;0.30;0.20;;;6.50;99.90;;;;;;8322286;28;20067;-69
2021/03/13 16:09:03;;;;;;;0.25;0.20;;;6.50;99.90;;;;;;8316873;28;20022;-69
2021/03/13 16:13:04;;;;;;;0.30;0.20;;;6.50;99.90;;;;;;8316255;28;20030;-68
2021/03/13 16:17:05;;;;;;;0.05;0.03;;;6.40;99.90;;;;;;8317414;28;20029;-68
2021/03/13 16:21:05;;;;;;;0.10;0.10;;;6.40;99.90;;;;;;8332381;28;20033;-68
2021/03/13 16:25:07;;;;;;;0.35;0.30;;;6.20;99.90;;;;;;8321574;28;20026;-68
2021/03/13 16:29:08;;;;;;;0.28;0.20;;;6.10;99.90;;;;;;8312557;28;20091;-68
2021/03/13 16:33:09;;;;;;;0.35;0.20;;;6.10;99.90;;;;;;8315927;28;20091;-67
2021/03/13 16:37:09;;;;;;;0.50;0.30;;;6.00;99.90;;;;;;8317737;28;20037;-68
2021/03/13 16:41:10;;;;;;;1.15;0.30;;;5.80;99.90;;;;;;8297186;28;20511;-68
2021/03/13 16:45:11;;;;;;;0.50;0.50;;;5.70;99.90;;;;;;8313533;28;20108;-68
2021/03/13 16:49:13;;;;;;;0.17;0.17;;;5.50;99.90;;;;;;8304597;28;20029;-68
2021/03/13 16:53:16;;;;;;;0.45;0.30;;;5.40;99.90;;;;;;8292977;28;20014;-67
2021/03/13 16:57:17;;;;;;;0.17;0.10;;;5.40;99.90;;;;;;8305949;28;20026;-68
2021/03/13 17:01:18;;;;;;;0.60;0.30;;;5.30;99.90;;;;;;8311744;28;20018;-68
2021/03/13 17:05:18;;;;;;;0.65;0.28;;;5.20;99.90;;;;;;8306448;28;20034;-67
2021/03/13 17:09:19;;;;;;;0.63;0.20;;;5.20;99.90;;;;;;8299222;28;20068;-68
2021/03/13 17:13:20;;;;;;;0.40;0.30;;;5.10;99.90;;;;;;8308117;28;20029;-68
2021/03/13 17:17:20;;;;;;;0.20;0.20;;;5.10;99.90;;;;;;8325299;28;20030;-67
2021/03/13 17:21:21;;;;;;;0.40;0.20;;;5.10;99.90;;;;;;8325404;28;20028;-68
2021/03/13 17:25:22;;;;;;;0.20;0.20;;;5.00;99.90;;;;;;8324872;28;20512;-67
2021/03/13 17:29:23;;;;;;;0.17;0.10;;;5.00;99.90;;;;;;8323574;28;20491;-67
2021/03/13 17:33:23;;;;;;;0.43;0.40;;;5.00;99.90;;;;;;8322716;28;20017;-67
2021/03/13 17:37:24;;;;;;;0.70;0.63;;;4.90;99.90;;;;;;8325930;28;20030;-68
2021/03/13 17:41:25;;;;;;;0.77;0.50;;;4.80;99.90;;;;;;8330723;28;20040;-69
2021/03/13 17:45:25;;;;;;;0.63;0.22;;;4.70;99.90;;;;;;8320247;28;20037;-69
2021/03/13 17:49:27;;;;;;;0.20;0.20;;;4.70;99.90;;;;;;8324643;28;20126;-69
2021/03/13 17:53:28;;;;;;;0.98;0.65;;;4.60;99.90;;;;;;8321704;28;20113;-69
2021/03/13 17:57:29;;;;;;;0.45;0.40;;;4.40;99.90;;;;;;8325345;28;20026;-68
2021/03/13 18:01:30;;;;;;;0.90;0.80;;;4.40;99.90;;;;;;8318548;28;20025;-69
2021/03/13 18:05:30;;;;;;;0.55;0.55;;;4.30;99.90;;;;;;8325150;28;20079;-69
2021/03/13 18:09:31;;;;;;;5.20;2.58;;;4.30;99.90;;;;;;8332916;28;20071;-69
2021/03/13 18:13:32;;;;;;;3.28;1.85;;;4.30;99.90;;;;;;8327409;28;20026;-68
2021/03/13 18:17:32;;;;;;;2.15;1.30;;;4.30;99.90;;;;;;8321678;28;20018;-68
2021/03/13 18:21:33;;;;;;;0.10;0.10;;;4.30;99.90;;;;;;8322083;28;20491;-68
2021/03/13 18:25:37;;;;;;;0.30;0.30;;;4.40;99.90;;;;;;8327529;28;20108;-68
2021/03/13 18:29:37;;;;;;;0.20;0.20;;;4.40;99.90;;;;;;8332435;28;20037;-68
2021/03/13 18:33:38;;;;;;;0.25;0.25;;;4.50;99.90;;;;;;8328501;28;20032;-68
2021/03/13 18:37:39;;;;;;;0.20;0.20;;;4.60;99.90;;;;;;8329504;28;20029;-68
2021/03/13 18:41:39;;;;;;;3.40;0.20;;;4.70;99.90;;;;;;8320590;28;20022;-68
2021/03/13 18:45:41;;;;;;;0.50;0.20;;;4.70;99.90;;;;;;8324785;28;20423;-68
2021/03/13 18:49:41;;;;;;;0.70;0.50;;;4.70;99.90;;;;;;8321335;28;20022;-68
2021/03/13 18:53:42;;;;;;;0.17;0.17;;;4.70;99.90;;;;;;8320608;28;20030;-68
2021/03/13 18:57:43;;;;;;;0.75;0.38;;;4.80;99.90;;;;;;8332050;28;20029;-68
2021/03/13 19:01:43;;;;;;;0.20;0.20;;;4.80;99.90;;;;;;8323571;28;20030;-68
2021/03/13 19:05:44;;;;;;;0.50;0.40;;;4.80;99.90;;;;;;8318788;28;20136;-68
2021/03/13 19:09:44;;;;;;;0.40;0.40;;;4.80;99.90;;;;;;8320760;28;20119;-69
2021/03/13 19:13:45;;;;;;;0.68;0.30;;;4.80;99.90;;;;;;8317537;28;20044;-67
2021/03/13 19:17:47;;;;;;;1.42;0.98;;;4.90;99.90;;;;;;8321830;28;20504;-68
2021/03/13 19:21:49;;;;;;;0.57;0.32;;;4.90;99.90;;;;;;8323345;22;20049;-64
2021/03/13 19:25:50;;;;;;;0.35;0.30;;;4.90;99.90;;;;;;8293720;28;20512;-63
2021/03/13 19:29:50;;;;;;;0.65;0.40;;;5.00;99.90;;;;;;8287340;28;20033;-63
2021/03/13 19:33:51;;;;;;;1.27;0.95;;;4.90;99.90;;;;;;8296033;28;20040;-63
2021/03/13 19:37:52;;;;;;;1.73;1.02;;;4.90;99.90;;;;;;8293642;28;20480;-63
2021/03/13 19:41:52;;;;;;;1.13;0.40;;;4.90;99.90;;;;;;8296032;28;20569;-63
2021/03/13 19:45:53;;;;;;;1.17;0.47;;;4.90;99.90;;;;;;8291522;28;20030;-63
2021/03/13 19:49:54;;;;;;;0.30;0.30;;;4.90;99.90;;;;;;8291344;28;20064;-64
2021/03/13 19:53:54;;;;;;;0.50;0.50;;;4.90;99.90;;;;;;8285134;28;20026;-63
2021/03/13 19:57:55;;;;;;;0.88;0.40;;;5.00;99.90;;;;;;8293185;28;20566;-63
2021/03/13 20:01:56;;;;;;;1.40;0.25;;;4.90;99.90;;;;;;8293996;28;20507;-63
2021/03/13 20:05:59;;;;;;;0.40;0.40;;;4.90;99.90;;;;;;8294861;28;20100;-63
2021/03/13 20:10:00;;;;;;;1.58;0.57;;;5.00;99.90;;;;;;8300485;28;20027;-63
2021/03/13 20:14:02;;;;;;;2.10;1.05;;;5.00;99.90;;;;;;8306254;28;20030;-63
2021/03/13 20:18:03;;;;;;;1.75;0.60;;;4.90;99.90;;;;;;8294946;28;20026;-63
2021/03/13 20:22:04;;;;;;;0.60;0.60;;;4.90;99.90;;;;;;8291036;28;20479;-63
2021/03/13 20:26:04;;;;;;;2.50;1.25;;;4.90;99.90;;;;;;8288920;28;20037;-63
2021/03/13 20:30:09;;;;;;;0.88;0.40;;;4.90;99.90;;;;;;8290286;28;20022;-63
2021/03/13 20:34:09;;;;;;;3.63;0.85;;;4.90;99.90;;;;;;8284683;28;20423;-64
2021/03/13 20:38:10;;;;;;;2.45;0.88;;;4.90;99.90;;;;;;8293303;28;20029;-64
2021/03/13 20:42:10;;;;;;;3.67;1.00;;;4.90;99.90;;;;;;8299117;28;20033;-66
2021/03/13 20:46:11;;;;;;;0.88;0.47;;;4.90;99.90;;;;;;8304646;28;20096;-63
2021/03/13 20:50:12;;;;;;;2.67;0.57;;;4.90;99.90;;;;;;8297320;28;20030;-64
2021/03/13 20:54:13;;;;;;;1.13;0.50;;;4.90;99.90;;;;;;8295305;28;20050;-63
2021/03/13 20:58:14;;;;;;;1.30;0.60;;;4.80;99.90;;;;;;8295327;28;20109;-64
2021/03/13 21:02:15;;;;;;;1.17;0.70;;;4.70;99.90;;;;;;8294316;28;20026;-64
2021/03/13 21:06:16;;;;;;;1.17;0.60;;;4.70;99.90;;;;;;8292017;28;20029;-63
2021/03/13 21:10:16;;;;;;;2.08;0.93;;;4.60;99.90;;;;;;8295241;28;20480;-63
2021/03/13 21:14:17;;;;;;;3.03;1.13;;;4.60;99.90;;;;;;8294373;28;20128;-63